Time;durP1;ratioP1;P1;durP2;ratioP2;P2;SDS_P1;SDS_P2;PMS_P1;PMS_P2;Temp;Humidity;BMP_temperature;BMP_pressure;BME280_temperature;BME280_humidity;BME280_pressure;Samples;Min_cycle;Max_cycle;Signal;HPM_P1;HPM_P2
2022/09/08 00:00:39;;;;;;;13.65;10.48;;;;;;;12.91;71.53;97140.93;1730366;82;25940;-84
2022/09/08 00:03:09;;;;;;;12.90;9.93;;;;;;;12.91;71.61;97140.93;1727434;82;26436;-84
2022/09/08 00:05:50;;;;;;;13.43;10.08;;;;;;;12.92;71.65;97145.30;1708492;81;28201;-84
2022/09/08 00:08:20;;;;;;;12.03;9.88;;;;;;;12.92;71.73;97139.88;1743915;81;25817;-85
2022/09/08 00:10:51;;;;;;;11.03;9.75;;;;;;;12.87;71.84;97137.02;1708644;82;25756;-84
2022/09/08 00:13:18;;;;;;;11.48;10.00;;;;;;;12.87;71.92;97130.25;1714497;83;25835;-85
2022/09/08 00:15:46;;;;;;;11.63;10.18;;;;;;;12.88;71.92;97135.97;1734082;81;25782;-86
2022/09/08 00:18:12;;;;;;;11.70;9.83;;;;;;;12.84;72.01;97137.48;1736802;81;27368;-86
2022/09/08 00:20:39;;;;;;;11.45;9.73;;;;;;;12.82;72.21;97136.88;1746595;80;25783;-85
2022/09/08 00:23:05;;;;;;;12.88;10.43;;;;;;;12.78;72.26;97135.72;1745241;80;25849;-85
2022/09/08 00:25:32;;;;;;;13.43;10.63;;;;;;;12.79;72.40;97130.59;1714963;82;26429;-85
2022/09/08 00:27:59;;;;;;;13.28;11.03;;;;;;;12.78;72.46;97130.30;1725449;82;25836;-86
2022/09/08 00:30:27;;;;;;;12.98;11.25;;;;;;;12.74;72.53;97135.34;1743537;80;27327;-86
2022/09/08 00:32:54;;;;;;;14.40;11.25;;;;;;;12.67;72.56;97141.92;1714397;82;25716;-85
2022/09/08 00:35:21;;;;;;;14.93;10.72;;;;;;;12.58;72.64;97137.34;1713770;83;26319;-85
2022/09/08 00:37:52;;;;;;;15.25;11.12;;;;;;;12.54;72.78;97134.29;1740795;82;25791;-85
2022/09/08 00:40:19;;;;;;;14.45;11.22;;;;;;;12.58;72.89;97136.81;1731508;82;25844;-86
2022/09/08 00:42:46;;;;;;;14.45;11.35;;;;;;;12.59;72.90;97133.05;1674220;82;27349;-85
2022/09/08 00:45:17;;;;;;;14.93;11.05;;;;;;;12.61;72.93;97130.12;1700227;82;25709;-85
2022/09/08 00:47:54;;;;;;;15.55;10.55;;;;;;;12.64;72.88;97126.95;1711788;83;25687;-85
2022/09/08 00:50:25;;;;;;;15.35;9.93;;;;;;;12.61;72.81;97125.53;1718145;82;25714;-85
2022/09/08 00:53:03;;;;;;;12.13;10.08;;;;;;;12.61;72.75;97128.23;1718652;82;25764;-85
2022/09/08 00:55:33;;;;;;;13.13;10.93;;;;;;;12.62;72.78;97123.66;1723932;82;27379;-87
2022/09/08 00:57:59;;;;;;;13.43;9.43;;;;;;;12.60;72.79;97115.75;1685112;83;25844;-86
2022/09/08 01:00:26;;;;;;;12.75;10.08;;;;;;;12.59;72.74;97118.16;1714205;81;25916;-87
2022/09/08 01:02:53;;;;;;;11.08;9.50;;;;;;;12.58;72.73;97128.69;1734756;82;25681;-86
2022/09/08 01:05:25;;;;;;;13.50;10.50;;;;;;;12.55;72.73;97125.64;1719229;81;25663;-86
2022/09/08 01:14:04;;;;;;;12.07;9.78;;;;;;;12.38;72.98;97128.16;1720214;81;25823;-86
2022/09/08 01:16:41;;;;;;;13.60;9.60;;;;;;;12.36;72.92;97125.38;1729438;82;25635;-85
2022/09/08 01:19:28;;;;;;;12.23;10.10;;;;;;;12.34;72.96;97126.95;1708450;82;25733;-85
2022/09/08 01:22:12;;;;;;;13.98;9.78;;;;;;;12.32;73.02;97124.20;1705405;83;28515;-85
2022/09/08 01:25:16;;;;;;;12.65;9.80;;;;;;;12.32;73.03;97122.84;1628323;85;26136;-85
2022/09/08 01:27:47;;;;;;;12.20;9.70;;;;;;;12.27;73.09;97120.81;1620921;85;25871;-85
2022/09/08 01:30:14;;;;;;;14.28;9.68;;;;;;;12.26;73.07;97124.05;1637729;85;26456;-85
2022/09/08 01:32:43;;;;;;;11.28;9.90;;;;;;;12.22;73.20;97117.95;1638029;85;25762;-85
2022/09/08 01:35:10;;;;;;;11.10;9.88;;;;;;;12.19;73.35;97120.62;1651853;85;27471;-84
2022/09/08 01:37:36;;;;;;;13.62;10.30;;;;;;;12.20;73.35;97122.77;1651528;86;25785;-85
2022/09/08 01:40:04;;;;;;;11.48;9.90;;;;;;;12.13;73.51;97124.22;1633298;86;25927;-85
2022/09/08 01:42:31;;;;;;;15.90;10.00;;;;;;;12.11;73.68;97132.26;1656461;85;26524;-85
2022/09/08 01:44:57;;;;;;;12.45;9.93;;;;;;;12.11;73.73;97132.26;1674542;85;25875;-85
2022/09/08 01:47:24;;;;;;;15.32;10.18;;;;;;;12.11;73.70;97124.14;1666981;85;27360;-85
2022/09/08 01:49:50;;;;;;;9.45;8.45;;;;;;;12.11;73.64;97116.03;1681257;85;25325;-85
2022/09/08 01:52:17;;;;;;;12.20;9.40;;;;;;;12.13;73.66;97115.28;1681433;85;25769;-84
2022/09/08 01:54:43;;;;;;;11.33;9.63;;;;;;;12.13;73.79;97117.98;1662381;85;25902;-84
2022/09/08 01:57:10;;;;;;;13.55;10.00;;;;;;;12.06;73.90;97117.26;1653980;85;25297;-85
2022/09/08 01:59:37;;;;;;;10.48;9.38;;;;;;;12.02;74.03;97112.81;1654061;85;27656;-85
2022/09/08 02:02:03;;;;;;;13.80;10.70;;;;;;;12.05;74.14;97111.55;1658097;84;25460;-85
2022/09/08 02:04:30;;;;;;;10.70;9.55;;;;;;;12.02;74.23;97107.93;1669384;84;25281;-85
2022/09/08 02:06:56;;;;;;;12.10;10.32;;;;;;;12.02;74.33;97113.34;1670725;84;25739;-84
2022/09/08 02:09:23;;;;;;;12.80;9.88;;;;;;;12.00;74.39;97112.73;1673230;84;25775;-85
2022/09/08 02:11:53;;;;;;;13.22;10.70;;;;;;;11.98;74.37;97108.08;1673198;84;26866;-85
2022/09/08 02:14:20;;;;;;;12.95;10.53;;;;;;;11.98;74.40;97108.08;1668326;84;25748;-84
2022/09/08 02:16:46;;;;;;;12.95;10.10;;;;;;;12.00;74.40;97104.63;1710321;83;25736;-84
2022/09/08 02:19:13;;;;;;;13.65;10.13;;;;;;;12.01;74.35;97103.05;1695469;84;25801;-84
2022/09/08 02:21:40;;;;;;;14.73;9.83;;;;;;;12.04;74.34;97100.42;1675996;84;26343;-84
2022/09/08 02:24:07;;;;;;;15.48;10.25;;;;;;;12.06;74.37;97096.97;1698353;83;28254;-84
2022/09/08 02:26:34;;;;;;;10.05;8.88;;;;;;;12.06;74.37;97094.27;1698135;83;25558;-84
2022/09/08 02:29:00;;;;;;;11.75;10.15;;;;;;;12.07;74.44;97091.86;1698440;83;25873;-84
2022/09/08 02:31:28;;;;;;;10.23;9.20;;;;;;;12.03;74.60;97092.00;1698472;83;25775;-84
2022/09/08 02:33:54;;;;;;;14.15;10.10;;;;;;;11.96;74.66;97088.54;1699915;83;25711;-84
2022/09/08 02:36:21;;;;;;;12.30;9.98;;;;;;;11.97;74.85;97081.55;1727746;82;28218;-85
2022/09/08 02:38:53;;;;;;;12.30;10.28;;;;;;;11.99;74.85;97081.33;1681098;83;25726;-85
2022/09/08 02:41:22;;;;;;;12.85;9.75;;;;;;;12.01;74.89;97085.98;1688514;83;25833;-84
2022/09/08 02:43:49;;;;;;;11.48;10.03;;;;;;;12.02;74.97;97079.53;1712142;83;25873;-84
2022/09/08 02:46:16;;;;;;;12.73;10.60;;;;;;;12.01;75.03;97084.64;1741021;82;26494;-84
2022/09/08 02:48:42;;;;;;;11.88;9.63;;;;;;;12.03;75.02;97083.89;1735663;82;27407;-84
2022/09/08 02:51:12;;;;;;;11.12;9.78;;;;;;;12.02;74.94;97084.41;1710161;82;25780;-84
2022/09/08 02:53:41;;;;;;;11.48;9.58;;;;;;;12.04;74.97;97085.54;1706027;82;25815;-84
2022/09/08 02:56:08;;;;;;;12.35;10.08;;;;;;;12.07;75.01;97076.98;1706105;82;26474;-84
2022/09/08 02:58:36;;;;;;;12.33;9.13;;;;;;;12.08;75.00;97077.25;1706618;82;25662;-84
2022/09/08 03:01:05;;;;;;;13.00;10.18;;;;;;;12.10;75.00;97077.84;1712333;82;27467;-84
2022/09/08 03:03:32;;;;;;;10.40;9.23;;;;;;;12.10;74.96;97064.32;1730950;82;26406;-84
2022/09/08 03:05:58;;;;;;;11.85;9.43;;;;;;;12.07;74.97;97068.86;1743455;80;25822;-84
2022/09/08 03:08:26;;;;;;;10.95;9.73;;;;;;;12.05;74.94;97066.91;1735803;82;25850;-84
2022/09/08 03:10:52;;;;;;;11.60;9.85;;;;;;;12.03;74.99;97073.89;1724745;82;26057;-84
2022/09/08 03:13:19;;;;;;;11.97;9.80;;;;;;;12.04;75.12;97069.31;1706016;82;27404;-83
2022/09/08 03:15:45;;;;;;;11.10;9.93;;;;;;;12.02;75.06;97072.77;1709148;81;25851;-83
2022/09/08 03:18:12;;;;;;;11.08;9.38;;;;;;;11.98;75.11;97068.86;1693453;81;25806;-83
2022/09/08 03:20:40;;;;;;;10.95;9.45;;;;;;;11.96;75.11;97075.84;1707415;82;25831;-83
2022/09/08 03:23:07;;;;;;;11.40;9.53;;;;;;;11.94;75.13;97071.21;1735359;82;25719;-84
2022/09/08 03:25:37;;;;;;;10.82;9.25;;;;;;;11.89;75.14;97071.88;1731559;82;28265;-84
2022/09/08 03:28:05;;;;;;;10.70;8.70;;;;;;;11.89;75.16;97065.13;1706252;82;25863;-83
2022/09/08 03:30:32;;;;;;;10.75;9.65;;;;;;;11.89;75.29;97060.23;1708086;82;25769;-84
2022/09/08 03:32:59;;;;;;;10.88;8.93;;;;;;;11.88;75.34;97060.77;1731172;82;25750;-84
2022/09/08 03:35:25;;;;;;;10.28;9.38;;;;;;;11.88;75.37;97060.77;1714999;82;26370;-84
2022/09/08 03:37:54;;;;;;;11.18;10.05;;;;;;;11.87;75.30;97062.34;1710437;81;27374;-83
2022/09/08 03:40:20;;;;;;;12.03;10.50;;;;;;;11.85;75.43;97053.09;1726660;82;26303;-83
2022/09/08 03:42:47;;;;;;;13.43;10.38;;;;;;;11.85;75.44;97051.75;1716379;82;25747;-84
2022/09/08 03:45:17;;;;;;;11.00;9.90;;;;;;;11.84;75.37;97049.27;1706166;82;25827;-84
2022/09/08 03:47:45;;;;;;;11.50;9.78;;;;;;;11.83;75.36;97057.11;1712518;82;26503;-84
2022/09/08 03:50:15;;;;;;;12.63;9.98;;;;;;;11.80;75.29;97052.14;1703965;82;27374;-85
2022/09/08 03:52:42;;;;;;;15.50;10.72;;;;;;;11.71;75.37;97056.19;1712568;82;25825;-84
2022/09/08 03:55:10;;;;;;;13.18;10.15;;;;;;;11.68;75.60;97056.11;1711847;82;26005;-84
2022/09/08 03:57:37;;;;;;;11.43;9.28;;;;;;;11.70;75.58;97056.72;1713303;82;25755;-85
2022/09/08 04:00:08;;;;;;;11.75;9.18;;;;;;;11.72;75.63;97056.46;1730871;82;25669;-84
2022/09/08 04:02:35;;;;;;;14.35;10.25;;;;;;;11.70;75.59;97058.06;1722249;82;27363;-84
2022/09/08 04:05:02;;;;;;;14.20;10.08;;;;;;;11.68;75.71;97054.76;1706208;82;25786;-84
2022/09/08 04:07:30;;;;;;;11.73;9.58;;;;;;;11.69;75.71;97052.88;1714178;82;25748;-84
2022/09/08 04:09:58;;;;;;;12.03;9.58;;;;;;;11.70;75.70;97058.06;1707084;82;26914;-84
2022/09/08 04:12:26;;;;;;;12.60;9.88;;;;;;;11.68;75.67;97054.76;1694371;82;25574;-84
2022/09/08 04:14:53;;;;;;;16.17;10.65;;;;;;;11.64;75.75;97050.84;1691616;82;27428;-83
2022/09/08 04:17:21;;;;;;;15.60;10.78;;;;;;;11.63;75.84;97047.84;1693494;83;25802;-84
2022/09/08 04:19:50;;;;;;;13.05;11.12;;;;;;;11.65;75.89;97054.38;1701897;83;25266;-83
2022/09/08 04:22:19;;;;;;;15.43;11.10;;;;;;;11.65;75.92;97058.43;1730773;82;25766;-83
2022/09/08 04:24:46;;;;;;;17.95;11.60;;;;;;;11.65;75.98;97061.96;1689255;82;26267;-83
2022/09/08 04:27:13;;;;;;;13.25;10.53;;;;;;;11.67;75.94;97054.45;1721167;82;27437;-83
2022/09/08 04:29:40;;;;;;;12.00;10.32;;;;;;;11.68;75.83;97051.23;1710394;82;25826;-83
2022/09/08 04:32:07;;;;;;;12.58;10.25;;;;;;;11.70;75.85;97051.31;1711870;82;25788;-83
2022/09/08 04:34:35;;;;;;;16.37;10.32;;;;;;;11.68;75.87;97049.35;1710731;82;25707;-82
2022/09/08 04:37:03;;;;;;;11.83;10.60;;;;;;;11.65;75.99;97051.67;1713738;82;25823;-84
2022/09/08 04:39:31;;;;;;;16.27;10.55;;;;;;;11.68;76.06;97056.11;1714118;82;27523;-84
2022/09/08 04:41:58;;;;;;;13.13;11.70;;;;;;;11.70;76.09;97054.01;1713709;82;26017;-84
2022/09/08 04:44:24;;;;;;;16.02;13.05;;;;;;;11.72;76.16;97051.87;1702827;81;25861;-84
2022/09/08 04:46:51;;;;;;;13.60;11.63;;;;;;;11.76;76.17;97043.66;1717433;83;25762;-83
2022/09/08 04:49:18;;;;;;;17.23;12.65;;;;;;;11.79;76.17;97045.91;1723015;82;25296;-84
2022/09/08 04:51:45;;;;;;;18.65;13.00;;;;;;;11.84;76.14;97047.91;1705886;83;28121;-84
2022/09/08 04:54:12;;;;;;;18.30;13.20;;;;;;;11.85;76.12;97044.98;1711548;82;25766;-84
2022/09/08 04:56:38;;;;;;;16.65;13.25;;;;;;;11.88;76.19;97044.54;1706287;84;25713;-84
2022/09/08 04:59:05;;;;;;;17.10;13.10;;;;;;;11.91;76.20;97047.32;1714330;82;25704;-84
2022/09/08 05:01:37;;;;;;;16.37;13.18;;;;;;;11.93;76.26;97052.50;1707279;82;25719;-84
2022/09/08 05:04:04;;;;;;;15.87;10.87;;;;;;;11.95;76.31;97047.70;1744107;82;27416;-84
2022/09/08 05:06:33;;;;;;;16.45;10.90;;;;;;;11.98;76.38;97035.87;1735561;82;25747;-84
2022/09/08 05:09:01;;;;;;;11.80;10.60;;;;;;;12.02;76.37;97030.84;1702538;82;25706;-84
2022/09/08 05:11:31;;;;;;;16.75;12.75;;;;;;;12.06;76.38;97032.87;1720841;82;25882;-84
2022/09/08 05:13:59;;;;;;;17.90;12.82;;;;;;;12.10;76.59;97031.33;1709654;82;25750;-84
2022/09/08 05:16:27;;;;;;;22.80;14.50;;;;;;;12.13;76.64;97032.76;1714202;82;27439;-84
2022/09/08 05:19:01;;;;;;;21.62;15.20;;;;;;;12.19;76.80;97041.32;1701019;82;25728;-84
2022/09/08 05:21:30;;;;;;;25.65;15.93;;;;;;;12.25;76.85;97032.27;1727227;82;25722;-85
2022/09/08 05:24:00;;;;;;;18.73;13.08;;;;;;;12.33;76.96;97027.87;1709573;82;25768;-84
2022/09/08 05:26:25;;;;;;;18.10;12.75;;;;;;;12.39;76.86;97026.95;1735810;81;25714;-84
2022/09/08 05:28:53;;;;;;;18.40;13.30;;;;;;;12.44;76.96;97031.13;1725881;82;27099;-84
2022/09/08 05:31:27;;;;;;;18.62;12.07;;;;;;;12.49;77.01;97029.91;1743591;81;25687;-84
2022/09/08 05:33:56;;;;;;;18.07;13.08;;;;;;;12.54;77.02;97034.12;1711024;82;25771;-84
2022/09/08 05:36:27;;;;;;;17.70;12.93;;;;;;;12.59;77.07;97022.05;1719002;82;25701;-84
2022/09/08 05:38:55;;;;;;;16.87;12.80;;;;;;;12.66;77.04;97018.42;1705576;82;25758;-83
2022/09/08 05:41:23;;;;;;;17.30;12.70;;;;;;;12.73;77.09;97030.77;1724500;82;28206;-84
2022/09/08 05:43:58;;;;;;;19.42;13.60;;;;;;;12.79;77.12;97029.03;1729610;82;25685;-85
2022/09/08 05:46:26;;;;;;;18.62;12.98;;;;;;;12.86;77.27;97038.68;1689318;82;25267;-86
2022/09/08 05:48:57;;;;;;;18.67;13.68;;;;;;;12.92;77.31;97037.72;1703780;82;25721;-85
2022/09/08 05:51:24;;;;;;;23.77;14.30;;;;;;;12.98;77.29;97046.81;1735965;82;25770;-85
2022/09/08 05:53:51;;;;;;;19.12;13.75;;;;;;;13.04;77.37;97045.86;1736000;81;27473;-85
2022/09/08 05:56:18;;;;;;;16.85;12.43;;;;;;;13.10;77.52;97039.52;1730789;81;25749;-85
2022/09/08 05:59:00;;;;;;;15.85;12.23;;;;;;;13.15;77.59;97034.25;1712007;82;25782;-85
2022/09/08 06:01:30;;;;;;;16.82;12.20;;;;;;;13.22;77.59;97030.88;1712073;81;26472;-86
2022/09/08 06:03:59;;;;;;;16.97;12.85;;;;;;;13.27;77.69;97021.52;1721202;82;26346;-86
2022/09/08 06:06:27;;;;;;;14.68;12.50;;;;;;;13.38;77.82;97028.51;1729568;81;27370;-86
2022/09/08 06:08:57;;;;;;;18.67;12.15;;;;;;;13.46;77.91;97017.28;1717327;82;25785;-86
2022/09/08 06:11:23;;;;;;;15.10;12.13;;;;;;;13.53;77.89;97017.97;1719090;82;25838;-86
2022/09/08 06:13:51;;;;;;;13.58;11.85;;;;;;;13.64;77.94;97018.50;1724875;82;25896;-85
2022/09/08 06:16:17;;;;;;;13.83;11.50;;;;;;;13.73;78.00;97019.76;1733842;81;26415;-86
2022/09/08 06:18:46;;;;;;;13.58;12.20;;;;;;;13.82;77.97;97015.59;1732665;82;27424;-83
2022/09/08 06:21:21;;;;;;;16.55;12.28;;;;;;;13.92;78.05;97004.94;1733364;82;25926;-83
2022/09/08 06:23:50;;;;;;;15.13;12.33;;;;;;;14.04;78.22;97013.85;1720815;82;25751;-83
2022/09/08 06:26:22;;;;;;;15.15;13.28;;;;;;;14.16;78.27;97006.19;1736520;81;25723;-83
2022/09/08 06:29:12;;;;;;;17.35;12.43;;;;;;;14.27;78.42;97007.48;1713806;81;25758;-84
2022/09/08 06:31:44;;;;;;;14.78;12.78;;;;;;;14.37;78.33;96994.08;1681569;83;28194;-83
2022/09/08 06:34:16;;;;;;;14.93;12.47;;;;;;;14.47;78.36;96986.70;1710285;81;25740;-83
2022/09/08 06:36:59;;;;;;;16.93;13.18;;;;;;;14.56;78.44;96981.14;1720094;81;25759;-83
2022/09/08 06:39:47;;;;;;;14.23;12.82;;;;;;;14.67;78.41;96984.30;1732439;82;26674;-84
2022/09/08 06:42:21;;;;;;;14.10;12.37;;;;;;;14.77;78.48;96991.25;1674342;83;25866;-83
2022/09/08 06:44:51;;;;;;;15.60;12.95;;;;;;;14.92;78.52;96977.62;1704966;82;27338;-83
2022/09/08 06:47:22;;;;;;;14.15;12.65;;;;;;;15.02;78.36;96975.87;1731601;81;26266;-84
2022/09/08 06:49:51;;;;;;;12.95;11.65;;;;;;;15.11;78.35;96966.20;1725220;81;25787;-85
2022/09/08 06:52:32;;;;;;;15.60;12.00;;;;;;;15.25;78.22;96968.03;1723140;82;26065;-84
2022/09/08 06:55:18;;;;;;;16.52;12.70;;;;;;;15.38;78.14;96973.10;1725816;82;25741;-84
2022/09/08 06:58:03;;;;;;;15.00;12.05;;;;;;;15.49;77.95;96967.25;1709648;82;28278;-85
2022/09/08 07:00:35;;;;;;;15.10;12.10;;;;;;;15.62;77.86;96962.82;1712087;82;26609;-86
2022/09/08 07:03:28;;;;;;;17.40;11.97;;;;;;;15.74;77.69;96959.42;1710179;82;25921;-85
2022/09/08 07:06:09;;;;;;;13.90;11.78;;;;;;;15.87;77.62;96957.39;1728296;82;25703;-85
2022/09/08 07:09:06;;;;;;;17.50;11.00;;;;;;;16.00;77.42;96952.91;1711837;82;25827;-85
2022/09/08 07:11:57;;;;;;;13.03;11.73;;;;;;;16.11;77.33;96950.02;1711790;82;27578;-85
2022/09/08 07:14:53;;;;;;;14.47;11.40;;;;;;;16.25;77.09;96953.16;1711731;82;25850;-84
2022/09/08 07:17:43;;;;;;;13.60;12.03;;;;;;;16.39;77.07;96946.75;1711735;81;25735;-83
2022/09/08 07:20:11;;;;;;;13.10;11.73;;;;;;;16.52;76.94;96944.41;1711719;82;26311;-83
2022/09/08 07:23:04;;;;;;;13.35;12.05;;;;;;;16.72;76.95;96942.41;1692198;82;25684;-84
2022/09/08 07:25:48;;;;;;;12.33;10.88;;;;;;;16.87;76.77;96944.42;1711815;82;28195;-84
2022/09/08 07:28:25;;;;;;;11.88;10.68;;;;;;;17.04;76.86;96948.33;1711567;82;25497;-85
2022/09/08 07:31:00;;;;;;;12.25;11.05;;;;;;;17.23;76.68;96940.00;1709026;82;25749;-86
2022/09/08 07:33:39;;;;;;;14.47;11.00;;;;;;;17.45;76.17;96935.20;1711851;82;26559;-86
2022/09/08 07:36:13;;;;;;;12.25;10.48;;;;;;;17.74;75.83;96932.07;1709136;83;26124;-86
2022/09/08 07:38:54;;;;;;;12.45;11.15;;;;;;;18.06;75.43;96924.50;1711468;82;26112;-86
2022/09/08 07:41:45;;;;;;;11.80;10.38;;;;;;;18.35;74.97;96924.81;1711838;82;25754;-86
2022/09/08 07:44:17;;;;;;;11.40;10.25;;;;;;;18.71;74.89;96920.20;1737916;81;25855;-87
2022/09/08 07:47:07;;;;;;;11.15;10.15;;;;;;;19.08;74.30;96917.67;1718042;82;26561;-86
2022/09/08 07:49:45;;;;;;;11.55;9.75;;;;;;;19.41;73.75;96919.20;1707646;82;26315;-87
2022/09/08 07:52:24;;;;;;;10.72;9.73;;;;;;;19.76;73.26;96916.89;1733843;82;25834;-86
2022/09/08 07:55:05;;;;;;;10.98;9.88;;;;;;;20.01;72.44;96921.96;1712910;83;25911;-86
2022/09/08 07:57:49;;;;;;;12.25;10.03;;;;;;;20.33;72.26;96922.28;1714001;82;25918;-85
2022/09/08 08:00:34;;;;;;;13.98;10.08;;;;;;;20.65;71.64;96916.30;1722533;83;26548;-85
2022/09/08 08:03:18;;;;;;;17.60;9.60;;;;;;;20.94;71.15;96910.83;1720887;83;25794;-85
2022/09/08 08:05:49;;;;;;;12.60;9.58;;;;;;;21.38;70.69;96916.69;1713408;83;27546;-85
2022/09/08 08:08:30;;;;;;;10.75;9.65;;;;;;;21.76;70.00;96911.55;1710827;83;25741;-85
2022/09/08 08:11:22;;;;;;;11.03;9.28;;;;;;;22.07;69.68;96905.13;1665749;83;26305;-86
2022/09/08 08:14:20;;;;;;;9.95;8.78;;;;;;;22.48;69.45;96903.92;1629478;86;25871;-85
2022/09/08 08:17:15;;;;;;;11.50;9.25;;;;;;;22.88;68.09;96901.09;1725583;82;25809;-85
2022/09/08 08:20:27;;;;;;;9.93;8.88;;;;;;;23.23;67.53;96894.66;1725608;83;28050;-86
2022/09/08 08:23:20;;;;;;;12.47;8.83;;;;;;;23.63;66.83;96895.83;1719592;82;25982;-87
2022/09/08 08:26:24;;;;;;;10.63;8.18;;;;;;;24.13;65.95;96895.84;1715633;82;25793;-86
2022/09/08 08:29:06;;;;;;;9.15;8.08;;;;;;;24.53;65.00;96894.89;1702809;83;26472;-87
2022/09/08 08:31:43;;;;;;;8.80;7.33;;;;;;;24.91;63.88;96884.84;1723539;82;25723;-87
2022/09/08 08:34:30;;;;;;;9.85;7.87;;;;;;;25.26;63.28;96882.53;1725340;83;28051;-87
2022/09/08 08:37:01;;;;;;;8.48;7.67;;;;;;;25.62;62.48;96880.17;1721490;82;25711;-86
2022/09/08 08:39:31;;;;;;;7.93;7.20;;;;;;;25.91;61.56;96867.98;1700078;83;25756;-87
2022/09/08 08:42:22;;;;;;;10.10;7.40;;;;;;;26.10;61.04;96863.52;1708511;82;26491;-87
2022/09/08 08:45:11;;;;;;;8.13;7.33;;;;;;;26.28;60.42;96847.78;1698192;83;25723;-87
2022/09/08 08:47:46;;;;;;;8.93;7.50;;;;;;;26.47;59.82;96844.09;1672036;84;27438;-87
2022/09/08 08:50:24;;;;;;;7.80;7.10;;;;;;;26.69;59.31;96839.73;1696600;83;25280;-87
2022/09/08 08:53:24;;;;;;;11.65;7.53;;;;;;;26.85;58.79;96833.93;1695751;83;25738;-86
2022/09/08 08:56:21;;;;;;;8.13;7.33;;;;;;;27.02;58.36;96832.30;1715353;83;25804;-86
2022/09/08 08:59:40;;;;;;;8.93;8.13;;;;;;;27.07;57.66;96832.91;1659082;84;25823;-88
2022/09/08 09:02:28;;;;;;;9.80;7.70;;;;;;;27.15;57.74;96832.08;1689317;84;27453;-89
2022/09/08 09:05:24;;;;;;;11.03;10.00;;;;;;;27.26;57.30;96826.98;1670269;84;25828;-88
2022/09/08 09:08:14;;;;;;;10.88;8.73;;;;;;;27.39;57.08;96827.33;1725526;82;25779;-94
2022/09/08 09:11:21;;;;;;;12.70;8.20;;;;;;;27.50;56.71;96825.80;1696020;83;26185;-92
2022/09/08 09:14:22;;;;;;;9.90;8.58;;;;;;;27.60;56.25;96818.52;1696251;83;25839;-92
2022/09/08 09:17:06;;;;;;;12.37;8.40;;;;;;;27.73;55.67;96807.51;1716649;83;28158;-91
2022/09/08 09:20:03;;;;;;;8.78;7.92;;;;;;;27.85;55.42;96807.02;1673609;82;25781;-89
2022/09/08 09:22:54;;;;;;;9.88;8.88;;;;;;;28.01;55.01;96805.03;1726492;82;25710;-91
2022/09/08 09:25:41;;;;;;;9.50;7.97;;;;;;;28.15;54.70;96802.20;1702298;82;26390;-91
2022/09/08 09:28:39;;;;;;;9.08;8.18;;;;;;;28.24;54.50;96800.22;1692645;82;25816;-89
2022/09/08 09:31:50;;;;;;;10.60;9.13;;;;;;;28.40;54.14;96807.89;1698143;83;27349;-90
2022/09/08 09:34:52;;;;;;;9.40;8.40;;;;;;;28.58;53.87;96809.36;1723108;83;25934;-94
2022/09/08 09:37:44;;;;;;;9.93;8.93;;;;;;;28.80;53.26;96805.41;1724795;83;25703;-90
2022/09/08 09:40:36;;;;;;;9.38;7.53;;;;;;;28.96;52.74;96804.41;1725287;83;25873;-89
2022/09/08 09:43:40;;;;;;;8.38;7.47;;;;;;;29.03;52.24;96801.05;1683804;81;25747;-89
2022/09/08 09:46:39;;;;;;;10.40;7.42;;;;;;;29.12;51.89;96792.02;1737994;81;27467;-89
2022/09/08 09:49:49;;;;;;;9.33;8.23;;;;;;;29.28;51.49;96787.98;1716160;81;25761;-88
2022/09/08 09:52:42;;;;;;;7.62;7.03;;;;;;;29.44;51.23;96790.34;1716488;81;25686;-89
2022/09/08 09:55:48;;;;;;;8.45;7.47;;;;;;;29.63;50.77;96789.16;1728715;81;26370;-89
2022/09/08 09:58:53;;;;;;;7.78;7.12;;;;;;;29.80;49.99;96787.28;1717157;81;25796;-88
2022/09/08 10:02:06;;;;;;;7.83;6.55;;;;;;;29.94;49.58;96791.90;1715347;81;27355;-90
2022/09/08 10:05:13;;;;;;;7.55;6.95;;;;;;;30.04;49.06;96781.70;1700927;81;25895;-89
2022/09/08 10:08:19;;;;;;;7.58;6.97;;;;;;;30.14;48.49;96779.80;1729584;81;26125;-89
2022/09/08 10:11:08;;;;;;;8.03;6.92;;;;;;;30.25;48.22;96773.96;1730650;82;25710;-89
2022/09/08 10:13:45;;;;;;;8.75;7.25;;;;;;;30.34;48.01;96775.19;1745385;81;25734;-87
2022/09/08 10:16:43;;;;;;;7.55;6.95;;;;;;;30.42;47.63;96773.67;1732301;81;27374;-88
2022/09/08 10:19:21;;;;;;;7.72;7.05;;;;;;;30.47;47.05;96762.03;1723602;81;25786;-88
2022/09/08 10:22:04;;;;;;;7.85;7.05;;;;;;;30.49;46.41;96768.05;1744488;81;25850;-87
2022/09/08 10:25:03;;;;;;;7.80;7.15;;;;;;;30.57;46.38;96759.56;1719390;82;25755;-87
2022/09/08 10:27:56;;;;;;;8.00;7.00;;;;;;;30.66;46.27;96760.81;1721586;82;25853;-87
2022/09/08 10:30:40;;;;;;;7.90;7.25;;;;;;;30.73;45.24;96758.20;1684269;82;27321;-87
2022/09/08 10:33:48;;;;;;;7.58;6.97;;;;;;;30.70;45.27;96751.95;1718134;82;25685;-87
2022/09/08 10:36:14;;;;;;;7.87;7.12;;;;;;;30.70;44.94;96750.55;1724866;81;25749;-88
2022/09/08 10:39:26;;;;;;;9.40;7.35;;;;;;;30.76;45.08;96744.96;1746436;81;26332;-87
2022/09/08 10:42:31;;;;;;;9.90;8.80;;;;;;;30.76;44.40;96748.56;1730573;81;25957;-88
2022/09/08 10:45:30;;;;;;;16.82;8.88;;;;;;;30.82;44.36;96746.88;1693131;83;28284;-86
2022/09/08 10:48:37;;;;;;;10.65;8.03;;;;;;;30.76;44.28;96748.56;1727629;83;25860;-87
2022/09/08 10:51:28;;;;;;;8.43;7.70;;;;;;;30.68;43.71;96746.73;1724280;82;25887;-88
2022/09/08 10:54:14;;;;;;;12.75;8.48;;;;;;;30.50;43.80;96741.25;1659974;84;25830;-88
2022/09/08 10:56:45;;;;;;;10.58;8.08;;;;;;;30.47;43.89;96738.36;1680776;83;25719;-88
2022/09/08 10:59:50;;;;;;;10.37;8.53;;;;;;;30.58;43.89;96739.48;1695045;83;27385;-89
2022/09/08 11:02:31;;;;;;;9.70;7.92;;;;;;;30.65;43.42;96738.30;1662592;84;26323;-91
2022/09/08 11:05:41;;;;;;;8.90;8.20;;;;;;;30.77;43.53;96741.02;1682485;83;25884;-90
2022/09/08 11:08:27;;;;;;;9.13;8.28;;;;;;;30.79;42.75;96731.10;1695200;83;26278;-88
2022/09/08 11:11:27;;;;;;;9.48;8.68;;;;;;;30.86;42.54;96731.08;1690219;83;25289;-85
2022/09/08 11:14:17;;;;;;;9.58;8.78;;;;;;;30.88;42.69;96733.73;1729273;83;27350;-88
2022/09/08 11:17:26;;;;;;;12.05;8.60;;;;;;;30.76;42.38;96729.64;1713106;82;25726;-88
2022/09/08 11:20:17;;;;;;;9.40;8.60;;;;;;;30.70;42.65;96728.27;1685379;83;25680;-88
2022/09/08 11:23:27;;;;;;;9.33;8.50;;;;;;;30.68;42.79;96724.45;1703213;83;26374;-89
2022/09/08 11:26:51;;;;;;;9.18;8.48;;;;;;;30.73;43.01;96727.56;1700813;83;25749;-96
2022/09/08 11:29:18;;;;;;;10.50;8.80;;;;;;;30.68;42.25;96719.45;1727336;83;28051;-93
2022/09/08 11:32:11;;;;;;;10.48;9.43;;;;;;;30.74;42.19;96716.65;1728047;82;26250;-93
2022/09/08 11:35:01;;;;;;;10.35;9.23;;;;;;;30.82;42.55;96719.02;1727747;83;25670;-94
2022/09/08 11:37:51;;;;;;;10.85;9.85;;;;;;;30.83;42.20;96714.48;1661534;83;25828;-92
2022/09/08 11:40:50;;;;;;;9.80;8.90;;;;;;;30.80;42.10;96710.44;1692406;83;25829;-87
2022/09/08 11:43:42;;;;;;;9.58;8.78;;;;;;;30.78;42.08;96708.62;1660829;84;27372;-89
2022/09/08 11:46:42;;;;;;;15.38;12.58;;;;;;;30.79;42.29;96706.03;1753260;81;25809;-90
2022/09/08 11:49:46;;;;;;;11.33;10.38;;;;;;;30.78;42.37;96711.98;1740033;81;25764;-87
2022/09/08 11:52:37;;;;;;;11.03;10.00;;;;;;;30.73;41.96;96710.84;1705483;82;25759;-89
2022/09/08 11:55:27;;;;;;;11.85;10.68;;;;;;;30.76;42.01;96701.78;1695878;82;25801;-88
2022/09/08 11:58:12;;;;;;;10.60;9.68;;;;;;;30.78;41.81;96697.47;1701250;82;27448;-89
2022/09/08 12:01:25;;;;;;;10.40;9.60;;;;;;;30.80;41.70;96693.72;1699173;82;25836;-88
2022/09/08 12:04:33;;;;;;;11.50;10.40;;;;;;;30.82;41.69;96693.95;1718959;81;25749;-87
2022/09/08 12:07:26;;;;;;;11.03;9.90;;;;;;;30.78;41.16;96696.08;1744776;81;25752;-88
2022/09/08 12:10:04;;;;;;;11.00;9.93;;;;;;;30.69;41.10;96700.19;1739406;81;25273;-88
2022/09/08 12:12:59;;;;;;;11.15;9.98;;;;;;;30.51;40.96;96700.28;1739262;81;27433;-88
2022/09/08 12:16:04;;;;;;;11.55;10.45;;;;;;;30.37;41.01;96702.10;1739097;81;25747;-87
2022/09/08 12:18:46;;;;;;;11.68;10.68;;;;;;;30.22;41.11;96707.86;1716788;81;25814;-87